KFHR Airport Information

Runway Information
Runway 16 Length 3402 ft width 75 ft
Elevation 113 ft Threshold 0 ft Heading 177
Runway 34 Length 3402 ft Width 75 ft
Elevation 84 ft Threshold 0 ft Heading 357
Airport Frequencies
Type A/D Name WHIDBEY AP Frequency 118.2 MHZ
Type ASOS Name ASOS Frequency 135.675 MHZ
Type CTAF Name CTAF Frequency 128.25 MHZ
Airport Navaids
Airport Weather Information & NOTAM
ADDS - METARS form results

(1531 UTC 18 October 2018)
Data provider http://aviationweather.gov/metar/data/
 
METAR text: KFHR 181453Z AUTO 00000KT 5SM BR CLR 07/06 A3017 RMK AO2 SLP217 T00720056 53009
Conditions at: KFHR (FRIDAY HARBOR , WA, US) observed 1453 UTC 18 October 2018
Temperature: 7.2°C (45°F)
Dewpoint: 5.6°C (42°F) [RH = 90%]
Pressure (altimeter): 30.17 inches Hg (1021.8 mb)
[Sea-level pressure: 1021.7 mb]
Winds: calm
Visibility: 5 miles ( 8 km)
Ceiling: at least 12,000 feet AGL
Clouds: sky clear below 12,000 feet AGL
Weather: BR  (mist)